Time;durP1;ratioP1;P1;durP2;ratioP2;P2;SDS_P1;SDS_P2;PMS_P1;PMS_P2;Temp;Humidity;BMP_temperature;BMP_pressure;BME280_temperature;BME280_humidity;BME280_pressure;Samples;Min_cycle;Max_cycle;Signal;HPM_P1;HPM_P2
2023/07/14 00:01:38;;;;;;;6.32;2.60;;;15.10;99.90;;;;;;4947894;28;20051;-65
2023/07/14 00:04:11;;;;;;;4.72;2.20;;;15.10;99.90;;;;;;4951350;29;20459;-65
2023/07/14 00:06:37;;;;;;;6.35;1.90;;;15.10;99.90;;;;;;4952486;29;20102;-65
2023/07/14 00:09:06;;;;;;;7.95;2.92;;;15.10;99.90;;;;;;4950950;29;20086;-65
2023/07/14 00:11:32;;;;;;;7.68;3.67;;;15.10;99.90;;;;;;4935146;29;20143;-65
2023/07/14 00:13:57;;;;;;;2.83;2.25;;;15.20;99.90;;;;;;4945152;29;20122;-65
2023/07/14 00:16:29;;;;;;;5.32;2.20;;;15.20;99.90;;;;;;4952260;29;20490;-65
2023/07/14 00:18:55;;;;;;;2.63;2.05;;;15.20;99.90;;;;;;4934493;29;20047;-65
2023/07/14 00:21:23;;;;;;;5.78;2.13;;;15.20;99.90;;;;;;4951644;29;20323;-65
2023/07/14 00:23:50;;;;;;;3.60;2.07;;;15.20;99.90;;;;;;4950668;29;20055;-65
2023/07/14 00:26:20;;;;;;;5.43;2.25;;;15.20;99.90;;;;;;4950713;29;20051;-65
2023/07/14 00:28:50;;;;;;;6.80;2.35;;;15.20;99.90;;;;;;4952041;29;20146;-65
2023/07/14 00:31:18;;;;;;;2.92;2.03;;;15.20;99.90;;;;;;4950956;29;20047;-65
2023/07/14 00:33:46;;;;;;;2.22;1.70;;;15.10;99.90;;;;;;4949848;29;20557;-65
2023/07/14 00:36:12;;;;;;;6.60;2.55;;;15.10;99.90;;;;;;4933174;29;20058;-65
2023/07/14 00:38:39;;;;;;;4.47;2.30;;;15.10;99.90;;;;;;4949439;28;20051;-65
2023/07/14 00:41:11;;;;;;;5.88;2.50;;;15.00;99.90;;;;;;4951786;29;20055;-65
2023/07/14 00:43:37;;;;;;;5.45;2.10;;;15.00;99.90;;;;;;4948153;29;20380;-65
2023/07/14 00:46:04;;;;;;;3.97;2.15;;;15.10;99.90;;;;;;4941337;29;20051;-65
2023/07/14 00:48:31;;;;;;;5.40;2.40;;;15.00;99.90;;;;;;4951342;29;20070;-65
2023/07/14 00:51:06;;;;;;;5.55;2.13;;;15.00;99.90;;;;;;4951592;29;20059;-65
2023/07/14 00:53:41;;;;;;;6.25;2.03;;;15.00;99.90;;;;;;4951821;29;20110;-65
2023/07/14 00:56:10;;;;;;;3.72;1.92;;;14.90;99.90;;;;;;4939927;29;20047;-65
2023/07/14 00:58:38;;;;;;;6.50;2.43;;;14.90;99.90;;;;;;4951788;29;20127;-65
2023/07/14 01:01:10;;;;;;;3.75;1.98;;;14.80;99.90;;;;;;4950090;29;20326;-64
2023/07/14 01:03:41;;;;;;;5.70;2.35;;;14.70;99.90;;;;;;4945932;29;20055;-64
2023/07/14 01:06:31;;;;;;;7.35;2.15;;;14.70;99.90;;;;;;4949186;28;20391;-64
2023/07/14 01:09:07;;;;;;;;;;;14.60;99.90;;;;;;4948040;29;20453;-64
2023/07/14 01:11:36;;;;;;;7.63;2.28;;;14.60;99.90;;;;;;4940496;29;19926;-64
2023/07/14 01:14:07;;;;;;;5.30;2.28;;;14.60;99.90;;;;;;4949707;28;20142;-65
2023/07/14 01:16:36;;;;;;;3.08;2.08;;;14.50;99.90;;;;;;4949928;29;20055;-64
2023/07/14 01:19:06;;;;;;;4.45;2.63;;;14.50;99.90;;;;;;4950408;29;20138;-65
2023/07/14 01:21:33;;;;;;;6.60;3.05;;;14.50;99.90;;;;;;4933712;29;20058;-65
2023/07/14 01:24:15;;;;;;;5.68;2.33;;;14.40;99.90;;;;;;4951399;29;20047;-64
2023/07/14 01:26:40;;;;;;;7.53;2.33;;;14.50;99.90;;;;;;4948359;29;20055;-65
2023/07/14 01:29:07;;;;;;;6.43;2.70;;;14.50;99.90;;;;;;4950684;29;20055;-65
2023/07/14 01:31:35;;;;;;;7.45;2.50;;;14.40;99.90;;;;;;4949660;28;20402;-65
2023/07/14 01:34:02;;;;;;;8.05;2.70;;;14.40;99.90;;;;;;4933721;29;20524;-65
2023/07/14 01:36:28;;;;;;;9.27;2.70;;;14.40;99.90;;;;;;4947862;29;20441;-65
2023/07/14 01:38:55;;;;;;;8.98;2.63;;;14.40;99.90;;;;;;4950281;29;20043;-65
2023/07/14 01:41:21;;;;;;;10.25;3.10;;;14.50;99.90;;;;;;4933767;29;20043;-65
2023/07/14 01:43:48;;;;;;;7.82;2.50;;;14.50;99.90;;;;;;4950002;29;20058;-65
2023/07/14 01:46:19;;;;;;;8.35;2.72;;;14.50;99.90;;;;;;4950234;29;20593;-65
2023/07/14 01:49:08;;;;;;;3.78;2.40;;;14.50;99.90;;;;;;4937089;29;20099;-65
2023/07/14 01:51:38;;;;;;;4.18;2.60;;;14.50;99.90;;;;;;4946441;29;20098;-65
2023/07/14 01:54:15;;;;;;;3.55;2.58;;;14.60;99.90;;;;;;4942897;29;20079;-65
2023/07/14 01:56:42;;;;;;;4.57;2.97;;;14.60;99.90;;;;;;4949337;29;20100;-65
2023/07/14 01:59:17;;;;;;;10.13;3.45;;;14.60;99.90;;;;;;4949143;29;20421;-65
2023/07/14 02:01:44;;;;;;;7.53;3.63;;;14.60;99.90;;;;;;4946337;29;20071;-65
2023/07/14 02:04:32;;;;;;;6.93;3.50;;;14.60;99.90;;;;;;4945703;29;20328;-65
2023/07/14 02:07:01;;;;;;;6.10;3.70;;;14.60;99.90;;;;;;4948624;29;20138;-65
2023/07/14 02:09:29;;;;;;;7.53;3.38;;;14.60;99.90;;;;;;4938659;29;20084;-65
2023/07/14 02:12:03;;;;;;;9.65;3.33;;;14.60;99.90;;;;;;4950609;29;20541;-65
2023/07/14 02:14:36;;;;;;;7.95;3.53;;;14.60;99.90;;;;;;4949159;29;20057;-65
2023/07/14 02:17:05;;;;;;;6.38;3.00;;;14.60;99.90;;;;;;4950367;29;20043;-65
2023/07/14 02:19:32;;;;;;;10.35;3.50;;;14.60;99.90;;;;;;4949060;29;20035;-65
2023/07/14 02:21:58;;;;;;;5.30;3.10;;;14.50;99.90;;;;;;4950424;29;20051;-65
2023/07/14 02:24:27;;;;;;;5.72;3.20;;;14.50;99.90;;;;;;4949770;29;20058;-65
2023/07/14 02:27:02;;;;;;;9.15;3.30;;;14.50;99.90;;;;;;4939092;29;20110;-65
2023/07/14 02:29:29;;;;;;;7.22;3.30;;;14.50;99.90;;;;;;4950443;29;20047;-65
2023/07/14 02:32:16;;;;;;;12.38;3.40;;;14.40;99.90;;;;;;4949119;29;20083;-65
2023/07/14 02:34:50;;;;;;;8.25;2.80;;;14.40;99.90;;;;;;4916925;29;20058;-65
2023/07/14 02:38:23;;;;;;;9.90;3.47;;;14.30;99.90;;;;;;4941408;29;20121;-65
2023/07/14 02:40:35;;;;;;;13.40;3.92;;;14.30;99.90;;;;;;4946055;29;20047;-65
2023/07/14 02:43:13;;;;;;;6.00;3.75;;;14.20;99.90;;;;;;4932890;29;20498;-65
2023/07/14 02:45:51;;;;;;;8.98;3.47;;;14.20;99.90;;;;;;4947756;29;20055;-65
2023/07/14 02:48:23;;;;;;;6.90;3.47;;;14.10;99.90;;;;;;4946005;29;20055;-65
2023/07/14 02:50:49;;;;;;;8.50;3.75;;;14.00;99.90;;;;;;4932747;29;20057;-65
2023/07/14 02:53:16;;;;;;;11.45;3.80;;;14.00;99.90;;;;;;4931543;29;20059;-65
2023/07/14 02:55:42;;;;;;;22.80;4.80;;;14.00;99.90;;;;;;4949718;28;20087;-64
2023/07/14 02:58:08;;;;;;;9.05;4.32;;;14.00;99.90;;;;;;4948824;29;20446;-65
2023/07/14 03:00:34;;;;;;;10.43;4.50;;;14.00;99.90;;;;;;4932666;29;20050;-64
2023/07/14 03:03:01;;;;;;;10.43;4.28;;;14.00;99.90;;;;;;4946613;29;20055;-65
2023/07/14 03:05:27;;;;;;;8.70;4.82;;;13.90;99.90;;;;;;4945642;29;20067;-65
2023/07/14 03:07:52;;;;;;;16.08;4.80;;;13.90;99.90;;;;;;4940436;29;20051;-64
2023/07/14 03:10:18;;;;;;;11.65;4.68;;;13.90;99.90;;;;;;4948630;29;20150;-64
2023/07/14 03:12:44;;;;;;;10.05;4.60;;;13.90;99.90;;;;;;4917049;29;20509;-65
2023/07/14 03:15:10;;;;;;;8.85;4.70;;;13.90;99.90;;;;;;4948411;29;20064;-64
2023/07/14 03:17:35;;;;;;;11.00;4.68;;;13.90;99.90;;;;;;4948442;29;20494;-65
2023/07/14 03:20:02;;;;;;;11.55;4.55;;;13.90;99.90;;;;;;4949101;29;20070;-64
2023/07/14 03:22:30;;;;;;;10.68;5.00;;;13.90;99.90;;;;;;4947628;29;20097;-64
2023/07/14 03:25:00;;;;;;;11.48;4.88;;;13.90;99.90;;;;;;4947205;29;20500;-64
2023/07/14 03:27:26;;;;;;;15.98;5.07;;;13.90;99.90;;;;;;4924596;29;20094;-65
2023/07/14 03:29:52;;;;;;;12.20;5.05;;;13.80;99.90;;;;;;4932656;28;20086;-64
2023/07/14 03:32:18;;;;;;;11.30;5.22;;;13.80;99.90;;;;;;4931766;29;20094;-64
2023/07/14 03:34:43;;;;;;;14.57;5.20;;;13.80;99.90;;;;;;4934457;29;20036;-64
2023/07/14 03:37:09;;;;;;;15.25;5.00;;;13.80;99.90;;;;;;4951433;28;20524;-64
2023/07/14 03:39:35;;;;;;;12.73;5.00;;;13.80;99.90;;;;;;4935657;29;20541;-65
2023/07/14 03:42:00;;;;;;;10.52;5.60;;;13.80;99.90;;;;;;4953019;29;20082;-64
2023/07/14 03:44:26;;;;;;;11.55;5.15;;;13.80;99.90;;;;;;4941740;29;20051;-64
2023/07/14 03:46:53;;;;;;;16.30;5.63;;;13.90;99.90;;;;;;4952080;29;20550;-64
2023/07/14 03:49:18;;;;;;;8.45;4.85;;;13.90;99.90;;;;;;4951359;29;20102;-64
2023/07/14 03:51:45;;;;;;;9.63;5.07;;;13.90;99.90;;;;;;4935490;29;20481;-64
2023/07/14 03:54:11;;;;;;;10.68;5.15;;;13.90;99.90;;;;;;4933998;29;20478;-64
2023/07/14 03:56:37;;;;;;;13.43;5.00;;;13.90;99.90;;;;;;4952631;29;20446;-64
2023/07/14 03:59:03;;;;;;;10.20;5.10;;;13.90;99.90;;;;;;4951943;29;20081;-64
2023/07/14 04:01:29;;;;;;;11.35;4.47;;;13.90;99.90;;;;;;4949623;29;20047;-65
2023/07/14 04:03:55;;;;;;;13.25;4.50;;;13.90;99.90;;;;;;4952061;29;20044;-64
2023/07/14 04:06:21;;;;;;;11.10;5.20;;;13.90;99.90;;;;;;4943796;28;20046;-64
2023/07/14 04:08:51;;;;;;;16.00;5.05;;;13.80;99.90;;;;;;4951262;29;20047;-64
2023/07/14 04:11:16;;;;;;;10.98;4.72;;;13.80;99.90;;;;;;4951378;29;20399;-64
2023/07/14 04:13:42;;;;;;;15.07;5.05;;;13.80;99.90;;;;;;4952546;29;20058;-64
2023/07/14 04:16:08;;;;;;;11.55;5.15;;;13.80;99.90;;;;;;4949804;29;20075;-64
2023/07/14 04:18:35;;;;;;;14.02;4.60;;;13.80;99.90;;;;;;4952269;29;20113;-64
2023/07/14 04:21:06;;;;;;;10.50;4.68;;;13.80;99.90;;;;;;4952127;29;20066;-64
2023/07/14 04:23:32;;;;;;;7.18;4.72;;;13.80;99.90;;;;;;4951777;29;20054;-64
2023/07/14 04:25:59;;;;;;;15.65;6.25;;;13.80;99.90;;;;;;4950717;29;20082;-65
2023/07/14 04:28:24;;;;;;;12.13;4.88;;;13.80;99.90;;;;;;4933643;29;20175;-64
2023/07/14 04:30:54;;;;;;;13.20;5.30;;;13.90;99.90;;;;;;4952374;29;20126;-64
2023/07/14 04:33:21;;;;;;;24.20;5.00;;;13.90;99.90;;;;;;4950540;29;20055;-65
2023/07/14 04:35:51;;;;;;;12.63;5.05;;;13.90;99.90;;;;;;4950912;29;20058;-65
2023/07/14 04:38:18;;;;;;;10.45;4.65;;;14.00;99.90;;;;;;4950233;29;20122;-64
2023/07/14 04:40:45;;;;;;;9.80;4.65;;;14.00;99.90;;;;;;4951137;29;20050;-64
2023/07/14 04:43:11;;;;;;;9.55;4.85;;;14.10;99.90;;;;;;4951075;29;20046;-64
2023/07/14 04:45:42;;;;;;;9.85;5.00;;;14.10;99.90;;;;;;4949166;29;20051;-64
2023/07/14 04:48:12;;;;;;;13.55;5.03;;;14.10;99.90;;;;;;4917066;29;20054;-64
2023/07/14 04:50:38;;;;;;;12.88;5.70;;;14.20;99.90;;;;;;4933122;29;20055;-64
2023/07/14 04:53:05;;;;;;;8.48;4.95;;;14.20;99.90;;;;;;4951589;29;20043;-64
2023/07/14 04:55:41;;;;;;;21.25;4.55;;;14.20;99.90;;;;;;4951109;29;20087;-64
2023/07/14 04:58:09;;;;;;;9.27;4.88;;;14.20;99.90;;;;;;4949429;29;20130;-65
2023/07/14 05:00:36;;;;;;;15.65;4.95;;;14.30;99.90;;;;;;4951651;29;20050;-65
2023/07/14 05:03:02;;;;;;;13.13;4.78;;;14.30;99.90;;;;;;4933006;29;20337;-64
2023/07/14 05:05:28;;;;;;;11.07;5.00;;;14.30;99.90;;;;;;4951252;29;20444;-65
2023/07/14 05:07:55;;;;;;;9.63;5.10;;;14.40;99.90;;;;;;4948491;29;20498;-64
2023/07/14 05:10:22;;;;;;;9.20;5.03;;;14.50;99.90;;;;;;4950049;29;20085;-64
2023/07/14 05:12:52;;;;;;;15.52;5.95;;;14.50;99.90;;;;;;4950857;29;20514;-64
2023/07/14 05:15:18;;;;;;;;;;;14.60;99.90;;;;;;4951654;29;20058;-64
2023/07/14 05:17:43;;;;;;;16.88;4.70;;;14.60;99.90;;;;;;4933675;29;20337;-64
2023/07/14 05:20:12;;;;;;;12.07;4.95;;;14.70;99.90;;;;;;4946783;29;20090;-64
2023/07/14 05:22:42;;;;;;;8.18;4.68;;;14.80;99.90;;;;;;4951061;29;20521;-65
2023/07/14 05:25:08;;;;;;;15.77;4.55;;;14.80;99.90;;;;;;4932959;29;20577;-64
2023/07/14 05:27:35;;;;;;;9.68;4.68;;;14.90;99.90;;;;;;4950735;29;20050;-65
2023/07/14 05:30:02;;;;;;;12.90;5.60;;;15.00;99.90;;;;;;4949056;29;20396;-64
2023/07/14 05:32:28;;;;;;;11.20;4.28;;;15.00;99.90;;;;;;4939898;29;20109;-65
2023/07/14 05:34:54;;;;;;;17.38;6.28;;;15.00;99.90;;;;;;4949303;29;20553;-64
2023/07/14 05:37:20;;;;;;;12.45;4.70;;;15.10;99.90;;;;;;4950096;29;20047;-65
2023/07/14 05:39:46;;;;;;;7.07;4.65;;;15.20;99.90;;;;;;4948549;29;20565;-64
2023/07/14 05:42:12;;;;;;;7.53;4.40;;;15.30;99.90;;;;;;4949910;29;20043;-64
2023/07/14 05:44:40;;;;;;;8.38;4.20;;;15.30;99.90;;;;;;4932934;29;20454;-64
2023/07/14 05:47:06;;;;;;;13.05;4.15;;;15.40;99.90;;;;;;4932571;29;20495;-65
2023/07/14 05:49:31;;;;;;;7.40;4.50;;;15.50;99.90;;;;;;4950306;29;20049;-64
2023/07/14 05:51:57;;;;;;;16.05;4.57;;;15.60;99.90;;;;;;4929191;29;20047;-64
2023/07/14 05:54:24;;;;;;;12.38;4.57;;;15.70;99.90;;;;;;4924171;29;20090;-64
2023/07/14 05:56:50;;;;;;;12.95;4.43;;;15.70;99.90;;;;;;4950225;29;20047;-64
2023/07/14 05:59:17;;;;;;;14.43;4.72;;;15.80;99.90;;;;;;4949458;28;20111;-65
2023/07/14 06:01:45;;;;;;;13.55;4.57;;;15.90;99.90;;;;;;4947646;29;20399;-65
2023/07/14 06:04:12;;;;;;;8.00;3.90;;;16.00;99.90;;;;;;4931111;29;20051;-65
2023/07/14 06:06:38;;;;;;;10.68;3.72;;;16.00;99.90;;;;;;4950182;28;20055;-64
2023/07/14 06:09:05;;;;;;;9.50;3.60;;;16.10;99.90;;;;;;4932865;29;20051;-64
2023/07/14 06:11:31;;;;;;;11.10;3.80;;;16.20;99.90;;;;;;4949890;29;20039;-64
2023/07/14 06:13:57;;;;;;;7.47;3.88;;;16.30;99.90;;;;;;4950887;29;20189;-64
2023/07/14 06:16:23;;;;;;;8.60;4.18;;;16.40;99.90;;;;;;4942777;29;20512;-64
2023/07/14 06:18:50;;;;;;;10.38;3.50;;;16.50;99.90;;;;;;4943957;29;20063;-65
2023/07/14 06:21:16;;;;;;;9.52;3.60;;;16.60;99.90;;;;;;4948945;28;20532;-65
2023/07/14 06:23:42;;;;;;;11.82;3.95;;;16.80;99.90;;;;;;4953286;28;20497;-65
2023/07/14 06:26:08;;;;;;;9.07;3.58;;;16.80;99.90;;;;;;4957877;28;20042;-64
2023/07/14 06:28:34;;;;;;;9.15;3.42;;;16.90;99.90;;;;;;4953653;28;20043;-64
2023/07/14 06:31:05;;;;;;;8.98;3.45;;;16.90;99.90;;;;;;4952316;28;20390;-65
2023/07/14 06:33:31;;;;;;;9.18;3.40;;;17.10;99.90;;;;;;4954659;28;20047;-64
2023/07/14 06:35:57;;;;;;;6.28;2.92;;;17.10;99.90;;;;;;4956497;28;20043;-64
2023/07/14 06:38:24;;;;;;;9.90;3.40;;;17.20;99.90;;;;;;4952189;28;20039;-64
2023/07/14 06:41:01;;;;;;;8.25;3.10;;;17.40;99.90;;;;;;4951113;28;20058;-64
2023/07/14 06:43:32;;;;;;;9.40;5.03;;;17.50;99.90;;;;;;4943656;28;20045;-64
2023/07/14 06:45:58;;;;;;;12.60;3.53;;;17.60;99.90;;;;;;4965272;28;20065;-65
2023/07/14 06:48:25;;;;;;;10.00;3.00;;;17.70;99.90;;;;;;4944954;29;20050;-64
2023/07/14 06:50:53;;;;;;;6.00;3.20;;;17.90;99.90;;;;;;4941753;29;20062;-65
2023/07/14 06:53:20;;;;;;;7.00;2.70;;;18.00;99.90;;;;;;4954179;28;20046;-64
2023/07/14 06:55:46;;;;;;;7.85;2.78;;;18.10;99.90;;;;;;4932607;28;20430;-64
2023/07/14 06:58:12;;;;;;;8.10;2.58;;;18.30;99.90;;;;;;4956273;28;20049;-64
2023/07/14 07:00:39;;;;;;;7.60;2.92;;;18.30;99.90;;;;;;4914673;29;20058;-65
2023/07/14 07:03:06;;;;;;;7.50;3.17;;;18.40;99.90;;;;;;4945753;29;20054;-65
2023/07/14 07:05:40;;;;;;;9.20;3.25;;;18.40;99.90;;;;;;4936001;29;20078;-64
2023/07/14 07:08:14;;;;;;;7.30;2.42;;;18.40;99.90;;;;;;4947462;29;20078;-64
2023/07/14 07:10:41;;;;;;;6.57;2.60;;;18.40;99.90;;;;;;4953755;28;20069;-66
2023/07/14 07:13:08;;;;;;;8.38;3.33;;;18.40;99.90;;;;;;4938125;29;20044;-65
2023/07/14 07:15:33;;;;;;;5.80;2.42;;;18.50;99.90;;;;;;4943499;28;20054;-65
2023/07/14 07:17:59;;;;;;;6.50;2.53;;;18.60;99.90;;;;;;4951668;28;20097;-65
2023/07/14 07:20:25;;;;;;;8.68;2.67;;;18.80;99.90;;;;;;4949904;29;20074;-64
2023/07/14 07:22:51;;;;;;;7.32;2.65;;;18.90;99.90;;;;;;4938486;29;20070;-65
2023/07/14 07:25:16;;;;;;;4.97;2.13;;;19.00;99.70;;;;;;4948158;29;20039;-65
2023/07/14 07:27:43;;;;;;;5.40;2.33;;;19.20;99.00;;;;;;4933733;29;20130;-64
2023/07/14 07:30:10;;;;;;;9.77;2.50;;;19.40;99.30;;;;;;4916347;29;20470;-64
2023/07/14 07:32:36;;;;;;;9.60;3.00;;;19.70;98.50;;;;;;4958545;28;20051;-64
2023/07/14 07:35:03;;;;;;;6.70;2.33;;;19.90;95.40;;;;;;4950438;28;20043;-64
2023/07/14 07:37:32;;;;;;;12.93;2.95;;;20.20;94.80;;;;;;4957898;28;20047;-64
2023/07/14 07:39:59;;;;;;;6.33;2.70;;;20.50;92.50;;;;;;4948829;28;20390;-64
2023/07/14 07:42:26;;;;;;;4.38;2.33;;;20.70;88.50;;;;;;4958923;28;20103;-64
2023/07/14 07:44:51;;;;;;;6.22;2.30;;;20.90;81.70;;;;;;4964777;28;20047;-64
2023/07/14 07:47:17;;;;;;;7.43;2.25;;;20.90;69.30;;;;;;4966500;28;20046;-65
2023/07/14 07:49:43;;;;;;;18.92;2.70;;;20.70;69.70;;;;;;4948878;28;20061;-64
2023/07/14 07:52:11;;;;;;;5.93;2.28;;;20.70;77.00;;;;;;4958319;28;20104;-65
2023/07/14 07:54:41;;;;;;;7.55;2.65;;;21.00;81.70;;;;;;4945760;29;20082;-64
2023/07/14 07:57:08;;;;;;;;;;;21.30;69.10;;;;;;4951170;29;20047;-64
2023/07/14 07:59:34;;;;;;;5.50;2.20;;;21.40;59.80;;;;;;4951127;29;20381;-64
2023/07/14 08:02:00;;;;;;;9.60;2.63;;;21.70;64.90;;;;;;4948547;28;20091;-64
2023/07/14 08:04:26;;;;;;;2.83;1.85;;;21.90;49.00;;;;;;4958257;28;20541;-65
2023/07/14 08:06:53;;;;;;;5.93;1.85;;;22.10;46.70;;;;;;4942884;28;20130;-64
2023/07/14 08:09:20;;;;;;;4.15;1.83;;;22.40;32.10;;;;;;4943704;29;20039;-64
2023/07/14 08:11:46;;;;;;;11.32;2.22;;;22.50;26.10;;;;;;4931375;29;20047;-65
2023/07/14 08:14:18;;;;;;;9.82;2.13;;;22.70;22.80;;;;;;4950234;29;20059;-64
2023/07/14 08:16:44;;;;;;;4.53;1.70;;;22.90;15.40;;;;;;4950822;29;20130;-65
2023/07/14 08:19:10;;;;;;;5.63;1.77;;;23.10;10.90;;;;;;4949533;29;20052;-65
2023/07/14 08:21:38;;;;;;;7.80;1.90;;;23.20;3.90;;;;;;4950092;28;20175;-65
2023/07/14 08:24:05;;;;;;;6.65;2.00;;;23.30;1.00;;;;;;4949739;28;20557;-65
2023/07/14 08:26:34;;;;;;;3.97;1.65;;;23.20;1.00;;;;;;4932442;29;20497;-64
2023/07/14 08:29:00;;;;;;;3.13;2.03;;;23.20;1.00;;;;;;4953094;28;20047;-64
2023/07/14 08:31:26;;;;;;;5.25;1.70;;;23.30;1.00;;;;;;4934449;29;20480;-64
2023/07/14 08:33:52;;;;;;;3.05;1.58;;;23.40;1.00;;;;;;4956973;28;20406;-65
2023/07/14 08:36:18;;;;;;;3.70;1.70;;;23.50;1.00;;;;;;4958875;28;20098;-65
2023/07/14 08:38:44;;;;;;;2.38;1.30;;;23.60;1.00;;;;;;4950544;29;20075;-65
2023/07/14 08:41:29;;;;;;;7.13;1.63;;;23.60;1.00;;;;;;4946012;28;20489;-65
2023/07/14 08:44:41;;;;;;;7.22;1.45;;;23.70;1.00;;;;;;4953462;28;20122;-65
2023/07/14 08:47:15;;;;;;;5.00;1.67;;;23.70;1.00;;;;;;4940611;29;20040;-65
2023/07/14 08:49:56;;;;;;;3.38;1.73;;;23.70;1.00;;;;;;4948333;28;20078;-64
2023/07/14 08:52:36;;;;;;;3.72;1.45;;;23.80;1.00;;;;;;4934931;29;20045;-64
2023/07/14 08:55:18;;;;;;;2.88;1.35;;;23.90;1.00;;;;;;4931540;29;20063;-65
2023/07/14 08:57:51;;;;;;;2.30;1.52;;;24.00;1.00;;;;;;4946927;28;20070;-64
2023/07/14 09:00:34;;;;;;;1.70;1.40;;;23.90;1.00;;;;;;4917225;29;20051;-65
2023/07/14 09:03:11;;;;;;;3.58;1.45;;;23.50;1.00;;;;;;4944151;29;20059;-65
2023/07/14 09:06:09;;;;;;;2.72;1.33;;;23.40;1.00;;;;;;4948991;29;20161;-65
2023/07/14 09:08:35;;;;;;;2.22;1.02;;;23.20;1.00;;;;;;4950092;29;20047;-65
2023/07/14 09:11:28;;;;;;;3.33;1.20;;;23.10;1.00;;;;;;4931936;29;20379;-64
2023/07/14 09:14:09;;;;;;;3.53;1.30;;;22.90;1.00;;;;;;4935702;29;20060;-65
2023/07/14 09:17:01;;;;;;;1.23;1.15;;;23.00;1.00;;;;;;4938097;29;20047;-64
2023/07/14 09:19:41;;;;;;;3.15;1.50;;;23.30;1.00;;;;;;4949286;29;20054;-65
2023/07/14 09:22:38;;;;;;;1.92;0.98;;;23.50;1.00;;;;;;4949338;29;20078;-65
2023/07/14 09:25:37;;;;;;;3.42;1.27;;;23.70;1.00;;;;;;4942868;29;20137;-64
2023/07/14 09:28:09;;;;;;;1.45;1.20;;;23.90;1.00;;;;;;4931135;29;20106;-65
2023/07/14 09:30:36;;;;;;;2.17;1.27;;;23.60;1.00;;;;;;4959129;28;20035;-65
2023/07/14 09:33:05;;;;;;;2.78;1.00;;;23.20;1.00;;;;;;4936594;28;20102;-65
2023/07/14 09:35:31;;;;;;;1.48;1.30;;;22.80;1.00;;;;;;4910040;29;20082;-64
2023/07/14 09:38:22;;;;;;;4.63;1.80;;;22.40;1.00;;;;;;4913902;29;20118;-65
2023/07/14 09:40:57;;;;;;;3.35;1.30;;;22.20;1.00;;;;;;4948385;29;20054;-65
2023/07/14 09:43:23;;;;;;;2.65;1.20;;;22.00;1.00;;;;;;4947398;29;20050;-65
2023/07/14 09:45:53;;;;;;;1.83;1.65;;;21.90;1.00;;;;;;4947448;29;20466;-65
2023/07/14 09:48:25;;;;;;;5.53;1.67;;;21.90;1.00;;;;;;4948317;29;20054;-65
2023/07/14 09:50:55;;;;;;;1.23;1.02;;;21.80;1.00;;;;;;4949305;29;20446;-65
2023/07/14 09:53:22;;;;;;;3.72;1.48;;;21.70;1.00;;;;;;4959097;28;20042;-65
2023/07/14 09:55:52;;;;;;;2.78;1.38;;;21.80;1.00;;;;;;4942431;29;20524;-65
2023/07/14 09:58:24;;;;;;;3.78;1.40;;;21.70;1.00;;;;;;4947475;29;20043;-65
2023/07/14 10:00:52;;;;;;;2.40;1.33;;;21.70;1.00;;;;;;4954098;28;20059;-65
2023/07/14 10:03:25;;;;;;;2.35;1.17;;;21.60;1.00;;;;;;4915312;29;20062;-65
2023/07/14 10:05:54;;;;;;;2.33;1.25;;;21.60;1.00;;;;;;4954715;28;20062;-65
2023/07/14 10:08:51;;;;;;;2.35;1.23;;;21.50;1.00;;;;;;4966572;28;20062;-65
2023/07/14 10:11:23;;;;;;;2.00;1.00;;;21.30;1.00;;;;;;4954565;28;20043;-65
2023/07/14 10:13:57;;;;;;;1.10;1.00;;;21.20;1.00;;;;;;4948079;28;20070;-65
2023/07/14 10:16:24;;;;;;;4.97;1.33;;;21.10;1.00;;;;;;4955498;28;20562;-65
2023/07/14 10:18:58;;;;;;;2.50;1.73;;;21.10;1.00;;;;;;4955623;28;20118;-65
2023/07/14 10:21:30;;;;;;;2.33;1.38;;;21.20;1.00;;;;;;4947908;29;20047;-65
2023/07/14 10:24:00;;;;;;;2.35;1.23;;;21.30;1.00;;;;;;4948418;29;20054;-65
2023/07/14 10:26:34;;;;;;;0.95;0.88;;;21.50;1.00;;;;;;4931012;29;20051;-66
2023/07/14 10:29:06;;;;;;;1.70;1.23;;;21.80;1.00;;;;;;4946842;29;20047;-65
2023/07/14 10:31:40;;;;;;;2.78;1.52;;;22.20;1.00;;;;;;4944122;29;20051;-65
2023/07/14 10:34:43;;;;;;;1.65;1.38;;;22.50;1.00;;;;;;4956271;28;20050;-65
2023/07/14 10:37:24;;;;;;;1.52;1.27;;;22.70;1.00;;;;;;4953186;28;20077;-65
2023/07/14 10:39:59;;;;;;;1.20;1.10;;;22.60;1.00;;;;;;4933295;29;20625;-65
2023/07/14 10:42:30;;;;;;;2.45;1.38;;;22.50;1.00;;;;;;4948687;28;20043;-65
2023/07/14 10:44:58;;;;;;;1.15;1.13;;;22.60;1.00;;;;;;4944575;28;20040;-65
2023/07/14 10:48:04;;;;;;;3.33;1.55;;;22.90;1.00;;;;;;4961760;28;20057;-65
2023/07/14 10:50:57;;;;;;;2.60;1.45;;;23.30;1.00;;;;;;4949223;28;20061;-65
2023/07/14 10:53:38;;;;;;;1.63;1.15;;;23.40;1.00;;;;;;4935111;29;20043;-65
2023/07/14 10:56:13;;;;;;;4.55;1.38;;;23.20;1.00;;;;;;4960162;28;20058;-65
2023/07/14 10:58:48;;;;;;;1.55;1.42;;;22.90;1.00;;;;;;4964993;28;20074;-65
2023/07/14 11:01:49;;;;;;;1.27;1.17;;;22.90;1.00;;;;;;4932203;29;20450;-65
2023/07/14 11:04:36;;;;;;;6.15;1.63;;;23.20;1.00;;;;;;4947232;28;20083;-65
2023/07/14 11:07:04;;;;;;;2.40;1.30;;;23.50;1.00;;;;;;4949614;28;20161;-64
2023/07/14 11:09:30;;;;;;;1.30;1.13;;;23.40;1.00;;;;;;4966803;28;20051;-64
2023/07/14 11:11:59;;;;;;;19.75;2.83;;;23.20;1.00;;;;;;4929601;29;20046;-65
2023/07/14 11:14:47;;;;;;;16.70;2.60;;;23.00;1.00;;;;;;4943492;28;20078;-65
2023/07/14 11:17:19;;;;;;;2.58;1.38;;;22.80;1.00;;;;;;4952026;28;20679;-65
2023/07/14 11:20:22;;;;;;;4.57;1.30;;;22.50;1.00;;;;;;4959700;28;20047;-65
2023/07/14 11:23:00;;;;;;;2.83;1.55;;;22.40;1.00;;;;;;4950603;28;20101;-65
2023/07/14 11:25:26;;;;;;;1.70;1.20;;;22.20;1.00;;;;;;4956405;28;20050;-65
2023/07/14 11:28:28;;;;;;;3.10;1.27;;;22.10;1.00;;;;;;4953812;28;20553;-65
2023/07/14 11:30:59;;;;;;;6.13;1.25;;;21.90;1.00;;;;;;4958380;28;20047;-65
2023/07/14 11:33:35;;;;;;;3.53;1.63;;;21.90;1.00;;;;;;4964671;28;20050;-66
2023/07/14 11:36:36;;;;;;;3.53;1.50;;;22.00;1.00;;;;;;4959901;28;20469;-65
2023/07/14 11:39:39;;;;;;;1.52;1.23;;;22.20;1.00;;;;;;4961788;28;20047;-66
2023/07/14 11:42:22;;;;;;;3.00;1.55;;;22.60;1.00;;;;;;4930382;29;20070;-65
2023/07/14 11:44:50;;;;;;;3.72;1.65;;;22.80;1.00;;;;;;4921712;29;20561;-65
2023/07/14 11:47:22;;;;;;;4.72;1.42;;;22.80;1.00;;;;;;4949506;29;20062;-65
2023/07/14 11:49:52;;;;;;;1.60;1.33;;;22.80;1.00;;;;;;4933418;29;20486;-64
2023/07/14 11:52:27;;;;;;;2.50;1.40;;;22.70;1.00;;;;;;4951100;29;20117;-64
2023/07/14 11:55:04;;;;;;;1.75;1.55;;;22.80;1.00;;;;;;4943808;29;20056;-65
2023/07/14 11:57:45;;;;;;;2.65;1.52;;;22.90;1.00;;;;;;4949791;28;20256;-65
2023/07/14 12:00:14;;;;;;;3.38;1.77;;;23.10;1.00;;;;;;4949318;28;20051;-65
2023/07/14 12:02:48;;;;;;;5.43;1.75;;;23.20;1.00;;;;;;4952845;28;20066;-65
2023/07/14 12:05:13;;;;;;;1.60;1.40;;;23.20;1.00;;;;;;4953854;28;20455;-65
2023/07/14 12:08:05;;;;;;;2.88;1.80;;;23.20;1.00;;;;;;4948134;28;20054;-64
2023/07/14 12:10:41;;;;;;;3.00;1.80;;;23.20;1.00;;;;;;4927803;28;20059;-65
2023/07/14 12:13:20;;;;;;;2.42;1.55;;;23.20;1.00;;;;;;4954229;28;20051;-64
2023/07/14 12:15:55;;;;;;;;;;;23.20;1.00;;;;;;4948411;28;20505;-65
2023/07/14 12:18:54;;;;;;;1.30;1.23;;;23.30;1.00;;;;;;4954998;28;19925;-65
2023/07/14 12:21:29;;;;;;;;;;;23.30;1.00;;;;;;4965226;28;20053;-65
2023/07/14 12:24:03;;;;;;;1.63;1.33;;;23.30;1.00;;;;;;4951905;28;19933;-65
2023/07/14 12:26:42;;;;;;;2.42;1.70;;;23.30;1.00;;;;;;4945918;29;20047;-65
2023/07/14 12:29:14;;;;;;;3.53;1.55;;;23.30;1.00;;;;;;4931690;29;20047;-65
2023/07/14 12:31:41;;;;;;;2.75;1.60;;;23.30;1.00;;;;;;4960908;28;20047;-65
2023/07/14 12:34:21;;;;;;;1.67;1.30;;;23.30;1.00;;;;;;4946588;28;20047;-64
2023/07/14 12:36:47;;;;;;;2.92;1.50;;;23.40;1.00;;;;;;4915597;29;20052;-65
2023/07/14 12:39:13;;;;;;;2.15;1.70;;;23.40;1.00;;;;;;4943270;28;20051;-64
2023/07/14 12:41:45;;;;;;;1.55;1.45;;;23.40;1.00;;;;;;4920890;29;20047;-65
2023/07/14 12:44:33;;;;;;;1.40;1.20;;;23.50;1.00;;;;;;4950062;29;20050;-64
2023/07/14 12:47:23;;;;;;;1.67;1.40;;;23.40;1.00;;;;;;4940800;29;20059;-64
2023/07/14 12:50:27;;;;;;;1.58;1.23;;;23.70;1.00;;;;;;4948272;29;20055;-64
2023/07/14 12:52:54;;;;;;;2.15;1.45;;;23.80;1.00;;;;;;4948763;29;20051;-64
2023/07/14 12:55:25;;;;;;;3.05;1.77;;;23.70;1.00;;;;;;4931882;29;20679;-65
2023/07/14 12:57:51;;;;;;;2.97;1.50;;;23.60;1.00;;;;;;4945982;29;20402;-64
2023/07/14 13:00:28;;;;;;;3.00;1.70;;;23.40;1.00;;;;;;4945585;29;20051;-64
2023/07/14 13:03:18;;;;;;;1.83;1.45;;;23.30;1.00;;;;;;4949759;28;20539;-64
2023/07/14 13:05:48;;;;;;;2.35;1.65;;;23.20;1.00;;;;;;4924256;29;20054;-64
2023/07/14 13:08:44;;;;;;;2.25;2.05;;;23.10;1.00;;;;;;4911374;29;20066;-65
2023/07/14 13:11:19;;;;;;;2.45;1.40;;;22.90;1.00;;;;;;4934232;29;20055;-64
2023/07/14 13:13:55;;;;;;;1.50;1.40;;;22.80;1.00;;;;;;4957872;28;20062;-64